Cranbury, New Jersey
Current Conditions -  °F | °C
As of 5:53 AM on Wednesday 26 Nov 2014 (Local Time) from KTTN Reporting Station
Light Rain Light Rain  
Wind Chill: 39°   Ceiling: 6000
Heat Index: 45°   Visibility: 10mi
Dew Point: 30°   Wind: 12mph
Humidity: 56%   Direction: 20°NNE
Pressure: 30.07"   Gusts: NA
Location:  40.32°N, 74.51°W
Report Text: KTTN 261053Z 02010KT 10SM -RA BKN060 OVC075 07/M01 A3007 RMK AO2 RAE15B51 SLP177 P0000 T00721011
Loading
Personal Weather Stations






























Interactive Weather Map New forecast layout! Learn more

10-Day Weather Forecast

Advertisements
Track Severe Weather on mobile